Time;durP1;ratioP1;P1;durP2;ratioP2;P2;SDS_P1;SDS_P2;PMS_P1;PMS_P2;Temp;Humidity;BMP_temperature;BMP_pressure;BME280_temperature;BME280_humidity;BME280_pressure;Samples;Min_cycle;Max_cycle;Signal;HPM_P1;HPM_P2
2021/12/14 00:01:46;;;;;;;38.58;20.20;;;;;;;7.97;100.00;102191.53;5009835;28;20030;-76
2021/12/14 00:04:20;;;;;;;41.22;21.50;;;;;;;7.95;100.00;102188.22;5009401;28;20041;-76
2021/12/14 00:06:51;;;;;;;35.88;20.27;;;;;;;7.94;100.00;102183.09;5012649;28;20040;-76
2021/12/14 00:09:28;;;;;;;38.42;21.30;;;;;;;7.98;100.00;102181.66;5013878;28;20056;-76
2021/12/14 00:17:13;;;;;;;40.35;22.33;;;;;;;7.94;100.00;102175.88;5004076;28;20357;-75
2021/12/14 00:19:38;;;;;;;37.90;21.17;;;;;;;7.97;100.00;102188.84;5007770;28;20029;-75
2021/12/14 00:22:20;;;;;;;41.47;20.80;;;;;;;7.96;100.00;102184.53;5018541;28;20051;-75
2021/12/14 00:24:46;;;;;;;39.50;21.92;;;;;;;7.99;100.00;102176.16;5013008;28;20157;-76
2021/12/14 00:27:13;;;;;;;44.22;22.23;;;;;;;7.93;100.00;102176.91;5029043;28;20056;-76
2021/12/14 00:29:50;;;;;;;39.58;21.50;;;;;;;7.88;100.00;102169.47;5012011;28;20133;-76
2021/12/14 00:32:21;;;;;;;41.70;21.60;;;;;;;7.93;100.00;102166.22;5013881;28;20044;-76
2021/12/14 00:34:49;;;;;;;43.15;22.48;;;;;;;7.91;100.00;102160.25;5013072;28;20041;-75
2021/12/14 00:37:21;;;;;;;39.53;22.48;;;;;;;7.93;100.00;102165.41;5012379;28;20029;-76
2021/12/14 00:39:48;;;;;;;41.25;24.13;;;;;;;7.97;100.00;102162.13;5026779;28;20533;-76
2021/12/14 00:42:14;;;;;;;41.15;22.80;;;;;;;7.91;100.00;102165.59;5013848;28;20495;-76
2021/12/14 00:44:39;;;;;;;44.80;23.33;;;;;;;7.82;100.00;102146.22;5012442;28;20045;-76
2021/12/14 00:47:09;;;;;;;41.15;23.48;;;;;;;7.76;100.00;102156.84;5014374;28;20021;-76
2021/12/14 00:49:35;;;;;;;50.75;25.08;;;;;;;7.80;100.00;102158.09;5001051;28;20051;-76
2021/12/14 00:52:07;;;;;;;52.95;26.80;;;;;;;7.82;100.00;102150.75;5019572;28;20037;-76
2021/12/14 00:54:36;;;;;;;42.38;25.90;;;;;;;7.81;100.00;102157.91;5011295;28;20041;-75
2021/12/14 00:57:02;;;;;;;47.05;26.58;;;;;;;7.83;100.00;102136.34;5022053;28;20043;-75
2021/12/14 00:59:28;;;;;;;41.25;25.10;;;;;;;7.83;100.00;102147.03;5013310;28;20205;-76
2021/12/14 01:02:03;;;;;;;42.65;25.70;;;;;;;7.85;100.00;102145.00;5010186;28;20464;-77
2021/12/14 01:04:33;;;;;;;46.88;26.05;;;;;;;7.86;100.00;102142.13;5001199;28;20034;-76
2021/12/14 01:07:02;;;;;;;50.10;26.02;;;;;;;7.77;100.00;102126.44;5013264;28;20094;-77
2021/12/14 01:09:34;;;;;;;52.60;27.35;;;;;;;7.83;100.00;102133.69;5011950;28;20148;-76
2021/12/14 01:12:09;;;;;;;55.40;27.00;;;;;;;7.79;100.00;102111.84;5018029;28;20048;-76
2021/12/14 01:14:46;;;;;;;44.88;25.70;;;;;;;7.80;100.00;102128.72;5011807;28;20095;-76
2021/12/14 01:17:26;;;;;;;48.50;27.08;;;;;;;7.75;100.00;102131.16;5012588;28;20105;-76
2021/12/14 01:20:00;;;;;;;54.17;27.27;;;;;;;7.75;100.00;102128.50;5013939;28;21980;-76
2021/12/14 01:22:40;;;;;;;49.92;27.83;;;;;;;7.77;100.00;102143.28;5015362;28;20030;-75
2021/12/14 01:25:18;;;;;;;58.85;29.17;;;;;;;7.72;100.00;102129.69;5015624;28;20619;-75
2021/12/14 01:27:48;;;;;;;54.58;28.38;;;;;;;7.80;100.00;102132.22;5012479;28;20466;-75
2021/12/14 01:30:23;;;;;;;57.65;28.98;;;;;;;7.79;100.00;102133.22;5020343;28;20044;-76
2021/12/14 01:32:49;;;;;;;56.47;28.90;;;;;;;7.79;100.00;102135.06;5011101;28;20037;-76
2021/12/14 01:35:23;;;;;;;56.42;29.58;;;;;;;7.76;100.00;102135.47;5016240;28;20025;-76
2021/12/14 01:38:01;;;;;;;51.38;29.73;;;;;;;7.77;100.00;102129.09;5025281;28;20118;-75
2021/12/14 01:40:53;;;;;;;58.22;29.60;;;;;;;7.79;100.00;102130.56;5026726;28;20611;-75
2021/12/14 01:43:27;;;;;;;64.30;30.23;;;;;;;7.72;100.00;102127.00;5010909;28;20027;-75
2021/12/14 01:45:54;;;;;;;57.08;30.88;;;;;;;7.69;100.00;102130.09;5010464;28;20738;-75
2021/12/14 01:48:20;;;;;;;63.00;30.80;;;;;;;7.69;100.00;102138.09;5025232;28;20161;-75
2021/12/14 01:50:54;;;;;;;56.78;30.83;;;;;;;7.73;100.00;102146.53;5011922;28;20531;-75
2021/12/14 01:53:23;;;;;;;;;;;;;;;7.75;100.00;102156.03;5016786;28;21865;-76
2021/12/14 01:55:53;;;;;;;66.22;30.10;;;;;;;7.74;100.00;102154.38;5011126;28;20015;-75
2021/12/14 01:58:21;;;;;;;55.78;30.35;;;;;;;7.77;100.00;102155.81;5016338;28;20041;-75
2021/12/14 02:00:52;;;;;;;65.18;31.52;;;;;;;7.75;100.00;102157.88;5015875;28;20091;-75
2021/12/14 02:03:27;;;;;;;58.65;30.40;;;;;;;7.77;100.00;102159.31;5011403;28;20028;-75
2021/12/14 02:05:53;;;;;;;64.80;31.45;;;;;;;7.80;100.00;102153.59;5008449;28;20091;-75
2021/12/14 02:08:25;;;;;;;57.78;30.20;;;;;;;7.71;100.00;102137.91;5010962;28;20570;-76
2021/12/14 02:10:53;;;;;;;56.30;31.63;;;;;;;7.76;100.00;102141.66;5017100;28;20041;-76
2021/12/14 02:13:27;;;;;;;60.22;32.38;;;;;;;7.63;100.00;102130.84;5010172;28;20191;-75
2021/12/14 02:15:55;;;;;;;68.05;33.47;;;;;;;7.74;100.00;102145.53;5010406;28;20120;-75
2021/12/14 02:18:24;;;;;;;65.53;32.30;;;;;;;7.76;100.00;102135.47;5008217;28;20037;-75
2021/12/14 02:21:04;;;;;;;63.28;33.42;;;;;;;7.79;100.00;102153.78;5019873;28;20452;-76
2021/12/14 02:23:30;;;;;;;61.38;33.00;;;;;;;7.81;100.00;102141.03;5009442;28;20056;-76
2021/12/14 02:25:58;;;;;;;65.13;33.22;;;;;;;7.74;100.00;102134.84;5010523;28;20029;-76
2021/12/14 02:28:24;;;;;;;72.15;33.80;;;;;;;7.67;100.00;102120.63;5010757;28;20033;-76
2021/12/14 02:30:52;;;;;;;66.57;33.05;;;;;;;7.77;100.00;102129.09;5015650;28;20037;-75
2021/12/14 02:33:38;;;;;;;68.55;34.08;;;;;;;7.74;100.00;102111.63;5024728;28;20595;-76
2021/12/14 02:36:12;;;;;;;68.93;33.08;;;;;;;7.82;100.00;102111.47;5010548;28;20025;-75
2021/12/14 02:38:45;;;;;;;67.45;33.30;;;;;;;7.77;100.00;102105.06;5009678;28;20064;-76
2021/12/14 02:41:11;;;;;;;62.60;34.58;;;;;;;7.76;100.00;102108.75;5008805;28;20028;-77
2021/12/14 02:43:39;;;;;;;64.75;33.67;;;;;;;7.76;100.00;102109.59;5009983;28;20041;-75
2021/12/14 02:46:10;;;;;;;65.57;34.80;;;;;;;7.71;100.00;102105.84;5009920;28;20663;-75
2021/12/14 02:48:43;;;;;;;70.25;34.00;;;;;;;7.70;100.00;102112.22;5009320;28;20107;-77
2021/12/14 02:51:27;;;;;;;64.60;32.90;;;;;;;7.64;100.00;102104.97;5009685;28;20029;-75
2021/12/14 02:54:18;;;;;;;70.93;33.97;;;;;;;7.77;100.00;102123.75;5010102;28;20214;-75
2021/12/14 02:56:54;;;;;;;68.22;32.33;;;;;;;7.74;100.00;102126.84;5009586;28;20411;-75
2021/12/14 02:59:28;;;;;;;81.65;34.25;;;;;;;7.74;100.00;102125.00;5008505;28;20566;-75
2021/12/14 03:02:03;;;;;;;68.45;35.00;;;;;;;7.74;100.00;102126.84;5010071;28;20645;-76
2021/12/14 03:04:33;;;;;;;76.93;35.35;;;;;;;7.77;100.00;102127.25;5010194;28;20164;-76
2021/12/14 03:06:59;;;;;;;80.25;35.33;;;;;;;7.84;100.00;102133.47;4991498;28;20184;-76
2021/12/14 03:09:40;;;;;;;76.03;36.40;;;;;;;7.82;100.00;102118.69;5008415;28;20045;-76
2021/12/14 03:12:17;;;;;;;73.13;36.00;;;;;;;7.84;100.00;102127.31;5008774;28;20041;-76
2021/12/14 03:14:53;;;;;;;75.25;34.35;;;;;;;7.90;100.00;102139.91;5009064;28;20057;-76
2021/12/14 03:17:22;;;;;;;77.82;35.40;;;;;;;7.82;100.00;102130.19;5009516;28;20144;-75
2021/12/14 03:20:00;;;;;;;77.40;35.17;;;;;;;7.92;100.00;102132.50;5009562;28;20139;-76
2021/12/14 03:22:48;;;;;;;76.50;35.00;;;;;;;7.91;100.00;102141.56;5024661;28;20029;-76
2021/12/14 03:25:18;;;;;;;69.13;33.72;;;;;;;7.94;100.00;102141.16;5009913;28;22240;-76
2021/12/14 03:27:50;;;;;;;66.50;32.78;;;;;;;7.91;100.00;102144.22;5008379;28;20064;-76
2021/12/14 03:30:25;;;;;;;73.82;34.17;;;;;;;7.91;100.00;102136.19;5007669;28;20221;-76
2021/12/14 03:32:54;;;;;;;75.07;34.63;;;;;;;7.94;100.00;102138.47;5015613;28;20341;-75
2021/12/14 03:35:24;;;;;;;70.97;33.28;;;;;;;7.88;100.00;102129.38;5010336;28;20032;-76
2021/12/14 03:38:04;;;;;;;67.47;33.58;;;;;;;7.91;100.00;102144.22;5014826;28;21046;-76
2021/12/14 03:40:32;;;;;;;68.55;33.30;;;;;;;7.85;100.00;102128.97;5011930;28;20569;-76
2021/12/14 03:42:58;;;;;;;68.72;33.92;;;;;;;7.81;100.00;102125.00;5008954;28;20045;-75
2021/12/14 03:45:25;;;;;;;77.00;33.65;;;;;;;7.88;100.00;102125.88;5007293;28;20115;-75
2021/12/14 03:47:56;;;;;;;70.80;33.95;;;;;;;7.88;100.00;102129.38;5007890;28;20698;-76
2021/12/14 03:50:48;;;;;;;68.55;32.33;;;;;;;7.90;100.00;102137.22;5015445;28;20043;-76
2021/12/14 03:53:14;;;;;;;59.10;33.15;;;;;;;7.87;100.00;102132.25;5007611;28;20115;-76
2021/12/14 03:55:43;;;;;;;63.15;32.85;;;;;;;7.81;100.00;102135.69;5011613;28;20045;-75
2021/12/14 03:58:19;;;;;;;60.75;33.95;;;;;;;7.80;100.00;102136.72;5018416;28;20052;-76
2021/12/14 04:00:48;;;;;;;63.20;33.05;;;;;;;7.84;100.00;102130.00;5012883;28;20613;-77
2021/12/14 04:03:16;;;;;;;61.33;32.17;;;;;;;7.83;100.00;102134.50;5012624;28;20064;-77
2021/12/14 04:05:45;;;;;;;65.57;32.67;;;;;;;7.87;100.00;102137.59;5001383;28;20828;-76
2021/12/14 04:08:13;;;;;;;76.22;34.88;;;;;;;7.83;100.00;102137.19;5013833;28;20533;-76
2021/12/14 04:10:41;;;;;;;67.95;33.75;;;;;;;7.77;100.00;102123.75;5013309;28;20055;-76
2021/12/14 04:13:14;;;;;;;59.70;32.38;;;;;;;7.81;100.00;102122.34;5012339;28;20052;-76
2021/12/14 04:15:41;;;;;;;68.28;32.53;;;;;;;7.78;100.00;102122.75;5011135;28;20033;-76
2021/12/14 04:18:07;;;;;;;60.30;33.28;;;;;;;7.77;100.00;102119.25;5013169;28;20581;-76
2021/12/14 04:20:37;;;;;;;64.30;33.40;;;;;;;7.82;100.00;102124.84;5015256;28;20040;-76
2021/12/14 04:23:08;;;;;;;60.53;31.85;;;;;;;7.83;100.00;102126.50;5027859;28;20037;-75
2021/12/14 04:25:37;;;;;;;58.60;31.98;;;;;;;7.79;100.00;102109.19;5013255;28;20152;-76
2021/12/14 04:28:08;;;;;;;70.15;31.65;;;;;;;7.91;100.00;102127.38;5012718;28;20760;-76
2021/12/14 04:30:35;;;;;;;65.10;32.08;;;;;;;7.89;100.00;102122.19;5026889;28;20025;-76
2021/12/14 04:33:04;;;;;;;67.65;32.20;;;;;;;7.90;100.00;102120.34;5012386;28;20030;-75
2021/12/14 04:35:37;;;;;;;64.93;33.25;;;;;;;7.93;100.00;102119.97;5013742;28;20064;-76
2021/12/14 04:38:10;;;;;;;69.22;32.92;;;;;;;7.91;100.00;102128.19;5012800;28;20033;-76
2021/12/14 04:54:21;;;;;;;64.57;33.17;;;;;;;7.86;100.00;102119.91;5010321;28;20048;-76
2021/12/14 04:56:47;;;;;;;64.38;32.17;;;;;;;7.91;100.00;102122.03;4995437;28;20033;-76
2021/12/14 04:59:20;;;;;;;64.10;32.05;;;;;;;7.86;100.00;102123.41;5015035;28;20507;-76
2021/12/14 05:01:48;;;;;;;65.82;34.10;;;;;;;7.86;100.00;102130.59;5026891;28;20036;-76
2021/12/14 05:04:21;;;;;;;68.65;33.95;;;;;;;7.83;100.00;102120.31;5009407;28;20033;-76
2021/12/14 05:06:54;;;;;;;64.25;33.08;;;;;;;7.87;100.00;102126.91;5026654;28;20492;-76
2021/12/14 05:09:28;;;;;;;68.20;33.45;;;;;;;7.81;100.00;102120.50;5012466;28;20500;-75
2021/12/14 05:11:54;;;;;;;71.13;33.97;;;;;;;7.84;100.00;102130.00;5011456;28;20078;-75
2021/12/14 05:14:20;;;;;;;66.47;32.00;;;;;;;7.86;100.00;102135.94;5015629;28;20082;-75
2021/12/14 05:16:46;;;;;;;69.30;33.40;;;;;;;7.86;100.00;102135.94;5006255;28;20515;-75
2021/12/14 05:19:14;;;;;;;70.85;32.97;;;;;;;7.87;100.00;102134.94;5011907;28;20045;-75
2021/12/14 05:21:47;;;;;;;67.72;31.90;;;;;;;7.84;100.00;102127.31;5012170;28;20491;-75
2021/12/14 05:24:16;;;;;;;70.45;33.85;;;;;;;7.81;100.00;102131.19;5012233;28;20044;-74
2021/12/14 05:26:49;;;;;;;76.97;33.88;;;;;;;7.83;100.00;102131.00;5011396;28;20103;-75
2021/12/14 05:29:24;;;;;;;67.03;33.53;;;;;;;7.82;100.00;102132.03;5015249;28;20111;-75
2021/12/14 05:31:55;;;;;;;75.40;34.15;;;;;;;7.80;100.00;102132.22;5012387;28;20184;-75
2021/12/14 05:34:24;;;;;;;65.80;32.00;;;;;;;7.85;100.00;102139.66;5011069;28;20052;-75
2021/12/14 05:36:51;;;;;;;69.28;32.47;;;;;;;7.69;100.00;102118.56;5011550;28;20029;-75
2021/12/14 05:39:40;;;;;;;68.60;31.42;;;;;;;7.80;100.00;102120.69;5027434;28;20028;-75
2021/12/14 05:44:38;;;;;;;74.75;32.33;;;;;;;7.80;100.00;102110.00;5010710;28;20211;-76
2021/12/14 05:47:11;;;;;;;66.63;31.93;;;;;;;7.86;100.00;102133.28;5012869;28;20124;-75
2021/12/14 05:49:39;;;;;;;66.07;31.85;;;;;;;7.73;100.00;102109.13;5020702;28;20363;-75
2021/12/14 05:52:37;;;;;;;69.63;30.90;;;;;;;7.85;100.00;102123.63;5010455;28;20080;-76
2021/12/14 05:55:05;;;;;;;72.82;31.10;;;;;;;7.85;100.00;102128.97;5016132;28;20114;-74
2021/12/14 05:57:34;;;;;;;73.43;32.35;;;;;;;7.90;100.00;102131.03;5017223;28;20029;-76
2021/12/14 06:00:00;;;;;;;77.15;31.95;;;;;;;7.90;100.00;102136.38;5011086;28;22404;-76
2021/12/14 06:02:25;;;;;;;68.47;29.17;;;;;;;7.94;100.00;102137.66;5002835;28;20040;-76
2021/12/14 06:04:53;;;;;;;69.07;31.65;;;;;;;7.98;100.00;102144.25;5026447;28;20057;-75
2021/12/14 06:07:20;;;;;;;68.85;31.13;;;;;;;7.96;100.00;102141.78;5010438;28;20124;-75
2021/12/14 06:09:49;;;;;;;71.55;30.50;;;;;;;7.98;100.00;102145.09;5011081;28;20555;-77
2021/12/14 06:12:32;;;;;;;66.80;30.48;;;;;;;7.96;100.00;102144.44;5009914;28;20033;-75
2021/12/14 06:14:59;;;;;;;;;;;;;;;8.02;100.00;102149.00;5017630;28;20434;-75
2021/12/14 06:17:30;;;;;;;71.53;29.80;;;;;;;8.02;100.00;102157.03;4996344;28;20419;-74
2021/12/14 06:19:59;;;;;;;75.10;30.48;;;;;;;8.01;100.00;102149.22;5011601;28;20716;-75
2021/12/14 06:22:27;;;;;;;86.55;33.05;;;;;;;8.01;100.00;102142.03;5024724;28;20087;-75
2021/12/14 06:25:01;;;;;;;84.30;32.03;;;;;;;8.00;100.00;102147.56;5013728;28;20045;-76
2021/12/14 06:27:33;;;;;;;79.60;31.92;;;;;;;8.01;100.00;102144.69;5019704;28;20040;-76
2021/12/14 06:30:12;;;;;;;74.95;31.80;;;;;;;8.06;100.00;102144.09;5009949;28;20516;-76
2021/12/14 06:32:44;;;;;;;68.25;30.45;;;;;;;8.05;100.00;102140.59;4994397;28;20143;-75
2021/12/14 06:35:20;;;;;;;73.85;31.73;;;;;;;8.10;100.00;102146.19;5009416;28;20037;-74
2021/12/14 06:40:53;;;;;;;82.63;32.28;;;;;;;8.12;100.00;102154.00;5009997;28;21062;-71
2021/12/14 06:43:29;;;;;;;82.35;31.55;;;;;;;8.09;100.00;102157.91;5016765;28;21848;-71
2021/12/14 06:45:57;;;;;;;81.28;31.27;;;;;;;8.10;100.00;102150.72;5010496;28;20025;-71
2021/12/14 06:48:53;;;;;;;83.13;32.50;;;;;;;8.11;100.00;102161.19;5009681;28;20658;-72
2021/12/14 06:51:25;;;;;;;81.88;32.72;;;;;;;8.14;100.00;102163.50;5008498;28;20099;-71
2021/12/14 06:53:58;;;;;;;81.93;33.60;;;;;;;8.11;100.00;102169.22;5010672;28;20130;-70
2021/12/14 06:56:30;;;;;;;82.47;31.77;;;;;;;8.11;100.00;102166.53;5011228;28;20730;-69
2021/12/14 06:59:15;;;;;;;94.07;32.63;;;;;;;8.03;100.00;102163.19;5016259;28;20116;-69
2021/12/14 07:01:54;;;;;;;93.78;33.08;;;;;;;8.07;100.00;102169.81;5024439;28;20045;-70
2021/12/14 07:04:31;;;;;;;94.10;33.15;;;;;;;8.05;100.00;102174.50;5013055;28;20191;-69
2021/12/14 07:07:00;;;;;;;96.10;33.90;;;;;;;8.09;100.00;102179.28;5015953;28;20060;-71
2021/12/14 07:09:31;;;;;;;105.82;35.08;;;;;;;8.13;100.00;102174.38;5018253;28;20049;-70
2021/12/14 07:12:08;;;;;;;107.88;35.13;;;;;;;8.10;100.00;102175.59;5010924;28;20048;-70
2021/12/14 07:14:38;;;;;;;102.45;33.55;;;;;;;8.05;100.00;102170.00;5010373;28;20138;-70
2021/12/14 07:17:10;;;;;;;102.60;35.13;;;;;;;8.08;100.00;102182.16;5009742;28;20060;-69
2021/12/14 07:19:47;;;;;;;107.03;34.77;;;;;;;8.07;100.00;102177.84;5009212;28;20525;-69
2021/12/14 07:22:33;;;;;;;97.18;34.47;;;;;;;8.09;100.00;102184.63;5009057;28;20030;-70
2021/12/14 07:25:11;;;;;;;91.45;34.38;;;;;;;8.08;100.00;102182.97;5009674;28;20029;-70
2021/12/14 07:27:54;;;;;;;88.22;32.72;;;;;;;8.08;100.00;102184.84;5022525;28;20276;-70
2021/12/14 07:30:19;;;;;;;95.78;33.10;;;;;;;8.09;100.00;102189.97;5009122;28;20037;-71
2021/12/14 07:32:47;;;;;;;102.53;35.10;;;;;;;8.02;100.00;102181.09;5009070;28;20029;-71
2021/12/14 07:35:49;;;;;;;101.43;33.55;;;;;;;8.10;100.00;102196.16;5009419;28;20156;-71
2021/12/14 07:38:17;;;;;;;100.50;33.53;;;;;;;8.06;100.00;102193.06;5011731;28;20029;-71
2021/12/14 07:40:49;;;;;;;101.40;34.42;;;;;;;8.07;100.00;102202.72;5023817;28;20282;-71
2021/12/14 07:43:25;;;;;;;110.32;36.17;;;;;;;8.05;100.00;102204.75;5008065;28;20036;-71
2021/12/14 07:45:54;;;;;;;98.43;33.28;;;;;;;8.05;100.00;102206.59;5003404;28;20064;-71
2021/12/14 07:48:21;;;;;;;105.90;35.55;;;;;;;8.01;100.00;102208.84;5022647;28;20466;-69
2021/12/14 07:50:54;;;;;;;111.43;33.97;;;;;;;8.07;100.00;102216.09;4992871;28;20043;-69
2021/12/14 07:53:30;;;;;;;100.45;33.70;;;;;;;8.07;100.00;102213.41;5007836;28;20654;-69
2021/12/14 07:55:56;;;;;;;106.95;34.30;;;;;;;8.11;100.00;102220.00;5008747;28;20115;-70
2021/12/14 07:58:38;;;;;;;103.60;33.50;;;;;;;8.06;100.00;102218.94;5009575;28;20065;-69
2021/12/14 08:01:07;;;;;;;110.20;33.33;;;;;;;8.04;100.00;102210.28;5008244;28;20207;-70
2021/12/14 08:03:33;;;;;;;98.50;32.92;;;;;;;8.05;100.00;102218.09;5014470;28;20484;-70
2021/12/14 08:06:02;;;;;;;104.65;33.45;;;;;;;8.08;100.00;102225.75;4996978;28;20033;-70
2021/12/14 08:08:48;;;;;;;101.13;32.92;;;;;;;8.06;100.00;102225.13;5024194;28;20051;-71
2021/12/14 08:14:00;;;;;;;99.40;31.25;;;;;;;8.06;100.00;102233.16;5007732;28;20037;-69
2021/12/14 08:16:25;;;;;;;;;;;;;;;8.04;100.00;102235.16;5020707;28;20187;-70
2021/12/14 08:18:52;;;;;;;98.60;31.42;;;;;;;8.07;100.00;102236.66;5000460;28;20361;-70
2021/12/14 08:21:23;;;;;;;104.95;31.77;;;;;;;7.97;100.00;102228.94;5018981;28;20500;-70
2021/12/14 08:24:05;;;;;;;103.13;31.73;;;;;;;8.03;100.00;102238.03;5011736;28;20034;-69
2021/12/14 08:26:44;;;;;;;88.03;31.63;;;;;;;8.09;100.00;102235.41;5008956;28;20331;-69
2021/12/14 08:29:22;;;;;;;91.40;31.75;;;;;;;8.08;100.00;102246.31;5008036;28;20572;-69
2021/12/14 08:31:53;;;;;;;98.85;32.10;;;;;;;8.09;100.00;102254.13;5019310;28;20171;-68
2021/12/14 08:34:22;;;;;;;95.53;31.80;;;;;;;8.12;100.00;102259.09;5009289;28;20476;-70
2021/12/14 08:37:08;;;;;;;111.43;33.03;;;;;;;8.11;100.00;102254.75;5009769;28;20253;-68
2021/12/14 08:39:50;;;;;;;104.88;32.10;;;;;;;8.09;100.00;102243.44;5009820;28;20363;-69
2021/12/14 08:42:26;;;;;;;93.15;30.58;;;;;;;8.07;100.00;102255.34;5014610;28;20029;-68
2021/12/14 08:44:59;;;;;;;109.22;31.77;;;;;;;8.07;100.00;102250.00;5016866;28;20527;-68
2021/12/14 08:47:33;;;;;;;97.80;31.05;;;;;;;8.07;100.00;102245.50;5012800;28;20029;-68
2021/12/14 08:50:03;;;;;;;104.53;31.58;;;;;;;8.07;100.00;102255.34;5011876;28;20158;-68
2021/12/14 08:52:30;;;;;;;95.05;31.85;;;;;;;8.07;100.00;102245.50;5016980;28;20052;-68
2021/12/14 08:54:58;;;;;;;92.18;31.77;;;;;;;8.11;100.00;102248.59;5017005;28;20036;-69
2021/12/14 08:57:29;;;;;;;97.93;31.70;;;;;;;8.07;100.00;102244.66;5012641;28;20400;-68
2021/12/14 09:00:01;;;;;;;95.03;32.28;;;;;;;8.12;100.00;102252.91;5012033;28;20156;-68
2021/12/14 09:02:29;;;;;;;95.23;32.93;;;;;;;8.10;100.00;102255.78;5027321;28;20176;-70
2021/12/14 09:05:04;;;;;;;101.75;32.67;;;;;;;8.13;100.00;102252.72;5011615;28;20029;-69
2021/12/14 09:07:31;;;;;;;102.10;33.08;;;;;;;8.12;100.00;102253.75;5012931;28;20061;-70
2021/12/14 09:09:57;;;;;;;102.38;31.20;;;;;;;8.10;100.00;102244.28;5018989;28;20123;-70
2021/12/14 09:12:30;;;;;;;99.95;32.05;;;;;;;8.15;100.00;102245.34;5011000;28;20164;-70
2021/12/14 09:15:00;;;;;;;98.80;31.23;;;;;;;8.15;100.00;102247.19;5014664;28;20057;-69
2021/12/14 09:17:26;;;;;;;95.85;32.15;;;;;;;8.11;100.00;102241.41;5004722;28;20568;-69
2021/12/14 09:20:06;;;;;;;103.40;31.95;;;;;;;8.11;100.00;102241.41;5015206;28;20067;-69
2021/12/14 09:22:41;;;;;;;94.53;31.90;;;;;;;8.16;100.00;102246.16;5010116;28;20634;-70
2021/12/14 09:25:11;;;;;;;98.20;31.63;;;;;;;8.13;100.00;102239.34;5012659;28;20353;-71
2021/12/14 09:27:38;;;;;;;90.65;32.97;;;;;;;8.22;100.00;102249.91;5011741;28;20038;-69
2021/12/14 09:30:06;;;;;;;99.47;32.20;;;;;;;8.21;100.00;102253.59;5012385;28;20168;-69
2021/12/14 09:32:36;;;;;;;103.15;32.67;;;;;;;8.21;100.00;102251.75;5012086;28;20081;-70
2021/12/14 09:35:06;;;;;;;90.65;31.42;;;;;;;8.21;100.00;102259.75;5010491;28;20030;-69
2021/12/14 09:37:32;;;;;;;108.97;33.45;;;;;;;8.17;100.00;102265.72;5012056;28;20117;-70
2021/12/14 09:40:07;;;;;;;99.70;31.95;;;;;;;8.14;100.00;102250.88;5026568;28;20029;-69
2021/12/14 09:42:37;;;;;;;115.00;31.90;;;;;;;8.22;100.00;102263.25;5015133;28;20035;-69
2021/12/14 09:45:11;;;;;;;107.97;32.15;;;;;;;8.19;100.00;102253.78;5014355;28;20546;-71
2021/12/14 09:47:39;;;;;;;95.38;31.02;;;;;;;8.20;100.00;102260.78;5018999;28;20035;-69
2021/12/14 09:50:24;;;;;;;111.72;31.83;;;;;;;8.22;100.00;102252.56;5009572;28;20083;-71
2021/12/14 09:52:50;;;;;;;101.40;30.67;;;;;;;8.27;100.00;102255.50;5026395;28;20025;-69
2021/12/14 09:55:21;;;;;;;100.18;30.50;;;;;;;8.29;100.00;102264.13;5010863;28;20056;-70
2021/12/14 09:57:51;;;;;;;97.55;31.13;;;;;;;8.27;100.00;102256.31;4998520;28;20117;-70
2021/12/14 10:00:34;;;;;;;110.95;32.35;;;;;;;8.31;100.00;102262.13;5010214;28;20036;-70
2021/12/14 10:03:02;;;;;;;103.43;31.33;;;;;;;8.27;100.00;102261.66;5017886;28;20424;-70
2021/12/14 10:05:33;;;;;;;105.53;31.38;;;;;;;8.31;100.00;102262.13;5015550;28;20056;-70
2021/12/14 10:08:02;;;;;;;;;;;;;;;8.27;100.00;102266.19;5012058;28;20049;-70
2021/12/14 10:10:31;;;;;;;99.40;29.30;;;;;;;8.24;100.00;102266.59;5010138;28;19968;-70
2021/12/14 10:12:57;;;;;;;102.07;29.45;;;;;;;8.29;100.00;102264.97;5010884;28;20052;-69
2021/12/14 10:15:25;;;;;;;106.97;30.33;;;;;;;8.27;100.00;102271.53;5025541;28;20037;-69
2021/12/14 10:17:56;;;;;;;82.18;26.83;;;;;;;8.31;100.00;102267.47;5015945;28;20040;-71
2021/12/14 10:20:31;;;;;;;104.38;28.10;;;;;;;8.29;100.00;102269.50;5009035;28;20264;-70
2021/12/14 10:22:59;;;;;;;93.95;27.55;;;;;;;8.32;100.00;102266.44;5010843;28;20037;-70
2021/12/14 10:25:27;;;;;;;88.32;28.13;;;;;;;8.26;100.00;102261.88;5015854;28;20086;-72
2021/12/14 10:27:54;;;;;;;89.07;25.55;;;;;;;8.33;100.00;102265.41;5020183;28;20116;-71
2021/12/14 10:30:35;;;;;;;90.72;26.17;;;;;;;8.37;100.00;102272.06;5009190;28;20044;-69
2021/12/14 10:33:01;;;;;;;81.33;23.23;;;;;;;8.46;100.00;102270.88;5008101;28;20071;-71
2021/12/14 10:35:35;;;;;;;72.78;20.25;;;;;;;8.45;100.00;102261.19;5009742;28;20037;-70
2021/12/14 10:38:20;;;;;;;78.47;21.17;;;;;;;8.52;100.00;102262.06;5015844;28;20120;-71
2021/12/14 10:43:36;;;;;;;73.43;19.15;;;;;;;8.45;100.00;102258.53;5015447;28;20036;-69
2021/12/14 10:46:28;;;;;;;64.35;17.92;;;;;;;8.43;100.00;102257.91;5006775;28;20037;-68
2021/12/14 10:48:54;;;;;;;;;;;;;;;8.44;100.00;102264.91;5010339;28;20557;-68
2021/12/14 10:51:28;;;;;;;60.33;15.23;;;;;;;8.50;100.00;102268.66;5008662;28;19931;-69
2021/12/14 10:53:55;;;;;;;60.42;15.70;;;;;;;8.51;100.00;102268.44;5015161;28;20036;-75
2021/12/14 10:56:26;;;;;;;73.50;17.80;;;;;;;8.51;100.00;102265.78;5009989;28;20731;-69
2021/12/14 10:58:54;;;;;;;73.97;17.45;;;;;;;8.54;100.00;102269.91;5009494;28;20033;-69
2021/12/14 11:01:29;;;;;;;84.05;18.85;;;;;;;8.50;100.00;102265.97;5009001;28;20113;-69
2021/12/14 11:04:02;;;;;;;86.05;20.48;;;;;;;8.46;100.00;102262.03;5009679;28;20492;-70
2021/12/14 11:06:33;;;;;;;70.68;22.27;;;;;;;8.47;100.00;102271.69;5009242;28;20170;-69
2021/12/14 11:11:37;;;;;;;80.13;21.60;;;;;;;8.45;100.00;102263.03;5009331;28;20048;-71
2021/12/14 11:14:08;;;;;;;73.88;21.35;;;;;;;8.40;100.00;102263.66;5010321;28;20049;-71
2021/12/14 11:19:41;;;;;;;72.85;20.60;;;;;;;8.46;100.00;102254.81;5009792;28;20029;-72
2021/12/14 11:22:18;;;;;;;71.10;21.33;;;;;;;8.46;100.00;102260.16;5010422;28;20275;-70
2021/12/14 11:24:50;;;;;;;61.60;19.73;;;;;;;8.48;100.00;102252.81;5019442;28;20033;-70
2021/12/14 11:27:20;;;;;;;68.93;18.58;;;;;;;8.50;100.00;102256.09;5012808;28;20029;-70
2021/12/14 11:29:50;;;;;;;74.35;20.25;;;;;;;8.46;100.00;102256.66;5009408;28;22163;-70
2021/12/14 11:32:19;;;;;;;76.20;19.73;;;;;;;8.49;100.00;102253.63;5002342;28;20025;-70
2021/12/14 11:34:45;;;;;;;65.18;19.20;;;;;;;8.49;100.00;102264.31;5009765;28;20071;-71
2021/12/14 11:37:18;;;;;;;75.63;19.15;;;;;;;8.50;100.00;102250.75;5010140;28;20029;-71
2021/12/14 11:39:47;;;;;;;69.00;19.77;;;;;;;8.55;100.00;102242.97;5013380;28;20481;-69
2021/12/14 11:42:18;;;;;;;74.97;19.52;;;;;;;8.54;100.00;102252.00;5008365;28;20033;-70
2021/12/14 11:44:56;;;;;;;71.17;18.60;;;;;;;8.57;100.00;102240.91;5024782;28;20672;-69
2021/12/14 11:50:12;;;;;;;67.15;17.58;;;;;;;8.60;100.00;102251.22;5013239;28;20033;-68
2021/12/14 11:53:07;;;;;;;75.20;18.60;;;;;;;8.65;100.00;102247.97;5014440;28;20030;-69
2021/12/14 11:55:44;;;;;;;69.28;17.23;;;;;;;8.66;100.00;102239.72;5008979;28;20270;-69
2021/12/14 11:58:22;;;;;;;70.93;17.13;;;;;;;8.63;100.00;102248.16;5010187;28;20088;-69
2021/12/14 12:01:14;;;;;;;58.78;16.65;;;;;;;8.66;100.00;102239.72;5001236;28;20726;-69
2021/12/14 12:03:39;;;;;;;72.97;15.05;;;;;;;8.63;100.00;102240.13;5001094;28;20731;-68
2021/12/14 12:06:25;;;;;;;57.72;13.73;;;;;;;8.62;100.00;102238.47;5011398;28;20033;-68
2021/12/14 12:11:47;;;;;;;67.32;15.00;;;;;;;8.69;100.00;102231.28;5009300;28;20056;-68
2021/12/14 12:14:29;;;;;;;58.33;13.40;;;;;;;8.73;100.00;102229.06;5010567;28;20183;-68